sensor_id;sensor_type;location;lat;lon;timestamp;P1;durP1;ratioP1;P2;durP2;ratioP2
20245;SDS011;10281;54.406;18.556;2024-03-22T00:00:30;24.50;;;15.93;;
20245;SDS011;10281;54.406;18.556;2024-03-22T00:02:56;25.37;;;15.27;;
20245;SDS011;10281;54.406;18.556;2024-03-22T00:05:23;25.40;;;15.67;;
20245;SDS011;10281;54.406;18.556;2024-03-22T00:07:50;25.80;;;15.40;;
20245;SDS011;10281;54.406;18.556;2024-03-22T00:10:16;27.53;;;16.47;;
20245;SDS011;10281;54.406;18.556;2024-03-22T00:12:43;28.03;;;16.13;;
20245;SDS011;10281;54.406;18.556;2024-03-22T00:15:09;26.37;;;16.00;;
20245;SDS011;10281;54.406;18.556;2024-03-22T00:17:36;26.13;;;15.33;;
20245;SDS011;10281;54.406;18.556;2024-03-22T00:20:03;25.33;;;14.70;;
20245;SDS011;10281;54.406;18.556;2024-03-22T00:22:30;27.40;;;14.67;;
20245;SDS011;10281;54.406;18.556;2024-03-22T00:24:57;22.63;;;14.97;;
20245;SDS011;10281;54.406;18.556;2024-03-22T00:27:24;27.40;;;14.50;;
20245;SDS011;10281;54.406;18.556;2024-03-22T00:29:50;21.90;;;14.53;;
20245;SDS011;10281;54.406;18.556;2024-03-22T00:32:17;24.03;;;15.27;;
20245;SDS011;10281;54.406;18.556;2024-03-22T00:34:43;24.47;;;15.67;;
20245;SDS011;10281;54.406;18.556;2024-03-22T00:37:11;26.47;;;15.80;;
20245;SDS011;10281;54.406;18.556;2024-03-22T00:39:37;25.47;;;14.87;;
20245;SDS011;10281;54.406;18.556;2024-03-22T00:42:04;24.00;;;14.73;;
20245;SDS011;10281;54.406;18.556;2024-03-22T00:44:30;27.10;;;16.03;;
20245;SDS011;10281;54.406;18.556;2024-03-22T00:46:57;26.53;;;16.17;;
20245;SDS011;10281;54.406;18.556;2024-03-22T00:49:24;28.43;;;17.30;;
20245;SDS011;10281;54.406;18.556;2024-03-22T00:51:50;27.43;;;16.53;;
20245;SDS011;10281;54.406;18.556;2024-03-22T00:54:17;26.67;;;15.30;;
20245;SDS011;10281;54.406;18.556;2024-03-22T00:56:44;27.40;;;15.83;;
20245;SDS011;10281;54.406;18.556;2024-03-22T00:59:11;32.10;;;16.73;;
20245;SDS011;10281;54.406;18.556;2024-03-22T01:01:37;25.43;;;15.33;;
20245;SDS011;10281;54.406;18.556;2024-03-22T01:04:04;25.50;;;14.23;;
20245;SDS011;10281;54.406;18.556;2024-03-22T01:06:31;26.60;;;16.07;;
20245;SDS011;10281;54.406;18.556;2024-03-22T01:08:57;25.23;;;16.13;;
20245;SDS011;10281;54.406;18.556;2024-03-22T01:11:24;24.93;;;15.73;;
20245;SDS011;10281;54.406;18.556;2024-03-22T01:13:50;27.97;;;15.97;;
20245;SDS011;10281;54.406;18.556;2024-03-22T01:16:17;26.47;;;15.33;;
20245;SDS011;10281;54.406;18.556;2024-03-22T01:18:44;26.17;;;15.73;;
20245;SDS011;10281;54.406;18.556;2024-03-22T01:21:10;26.57;;;16.30;;
20245;SDS011;10281;54.406;18.556;2024-03-22T01:23:37;27.80;;;15.30;;
20245;SDS011;10281;54.406;18.556;2024-03-22T01:26:03;29.13;;;16.10;;
20245;SDS011;10281;54.406;18.556;2024-03-22T01:28:30;29.37;;;17.03;;
20245;SDS011;10281;54.406;18.556;2024-03-22T01:30:57;28.13;;;17.57;;
20245;SDS011;10281;54.406;18.556;2024-03-22T01:33:23;31.17;;;17.00;;
20245;SDS011;10281;54.406;18.556;2024-03-22T01:35:50;29.80;;;16.43;;
20245;SDS011;10281;54.406;18.556;2024-03-22T01:38:17;27.20;;;15.83;;
20245;SDS011;10281;54.406;18.556;2024-03-22T01:40:44;25.67;;;15.87;;
20245;SDS011;10281;54.406;18.556;2024-03-22T01:43:11;25.53;;;16.27;;
20245;SDS011;10281;54.406;18.556;2024-03-22T01:45:37;25.93;;;16.00;;
20245;SDS011;10281;54.406;18.556;2024-03-22T01:48:04;27.47;;;15.53;;
20245;SDS011;10281;54.406;18.556;2024-03-22T01:50:32;27.93;;;15.73;;
20245;SDS011;10281;54.406;18.556;2024-03-22T01:52:59;29.13;;;16.03;;
20245;SDS011;10281;54.406;18.556;2024-03-22T01:55:27;26.90;;;15.67;;
20245;SDS011;10281;54.406;18.556;2024-03-22T01:57:55;26.37;;;14.73;;
20245;SDS011;10281;54.406;18.556;2024-03-22T02:00:22;28.63;;;15.20;;
20245;SDS011;10281;54.406;18.556;2024-03-22T02:02:48;26.67;;;14.53;;
20245;SDS011;10281;54.406;18.556;2024-03-22T02:05:15;24.17;;;14.30;;
20245;SDS011;10281;54.406;18.556;2024-03-22T02:07:47;24.40;;;15.23;;
20245;SDS011;10281;54.406;18.556;2024-03-22T02:10:14;26.40;;;13.90;;
20245;SDS011;10281;54.406;18.556;2024-03-22T02:12:42;24.67;;;14.40;;
20245;SDS011;10281;54.406;18.556;2024-03-22T02:15:08;24.53;;;14.40;;
20245;SDS011;10281;54.406;18.556;2024-03-22T02:17:35;23.40;;;13.70;;
20245;SDS011;10281;54.406;18.556;2024-03-22T02:20:02;22.23;;;13.53;;
20245;SDS011;10281;54.406;18.556;2024-03-22T02:22:30;22.43;;;13.57;;
20245;SDS011;10281;54.406;18.556;2024-03-22T02:24:57;24.87;;;14.17;;
20245;SDS011;10281;54.406;18.556;2024-03-22T02:27:24;23.87;;;14.30;;
20245;SDS011;10281;54.406;18.556;2024-03-22T02:29:51;21.43;;;12.57;;
20245;SDS011;10281;54.406;18.556;2024-03-22T02:32:18;25.73;;;15.33;;
20245;SDS011;10281;54.406;18.556;2024-03-22T02:34:44;23.57;;;13.93;;
20245;SDS011;10281;54.406;18.556;2024-03-22T02:37:11;22.43;;;13.60;;
20245;SDS011;10281;54.406;18.556;2024-03-22T02:39:38;24.23;;;15.10;;
20245;SDS011;10281;54.406;18.556;2024-03-22T02:42:04;28.73;;;14.67;;
20245;SDS011;10281;54.406;18.556;2024-03-22T02:44:31;24.70;;;14.43;;
20245;SDS011;10281;54.406;18.556;2024-03-22T02:46:58;25.10;;;13.83;;
20245;SDS011;10281;54.406;18.556;2024-03-22T02:49:25;26.20;;;14.83;;
20245;SDS011;10281;54.406;18.556;2024-03-22T02:51:51;23.40;;;13.30;;
20245;SDS011;10281;54.406;18.556;2024-03-22T02:54:18;23.03;;;14.47;;
20245;SDS011;10281;54.406;18.556;2024-03-22T02:56:45;24.43;;;14.07;;
20245;SDS011;10281;54.406;18.556;2024-03-22T02:59:11;23.27;;;12.87;;
20245;SDS011;10281;54.406;18.556;2024-03-22T03:01:38;22.20;;;12.63;;
20245;SDS011;10281;54.406;18.556;2024-03-22T03:04:04;23.60;;;13.73;;
20245;SDS011;10281;54.406;18.556;2024-03-22T03:06:31;23.80;;;14.17;;
20245;SDS011;10281;54.406;18.556;2024-03-22T03:08:58;21.90;;;12.97;;
20245;SDS011;10281;54.406;18.556;2024-03-22T03:11:24;21.77;;;13.30;;
20245;SDS011;10281;54.406;18.556;2024-03-22T03:13:51;22.23;;;12.93;;
20245;SDS011;10281;54.406;18.556;2024-03-22T03:16:17;22.23;;;13.53;;
20245;SDS011;10281;54.406;18.556;2024-03-22T03:18:44;23.33;;;14.23;;
20245;SDS011;10281;54.406;18.556;2024-03-22T03:21:11;24.50;;;13.87;;
20245;SDS011;10281;54.406;18.556;2024-03-22T03:23:37;22.97;;;13.77;;
20245;SDS011;10281;54.406;18.556;2024-03-22T03:26:04;24.07;;;14.47;;
20245;SDS011;10281;54.406;18.556;2024-03-22T03:28:30;23.13;;;13.23;;
20245;SDS011;10281;54.406;18.556;2024-03-22T03:30:57;23.67;;;14.50;;
20245;SDS011;10281;54.406;18.556;2024-03-22T03:33:24;25.17;;;14.87;;
20245;SDS011;10281;54.406;18.556;2024-03-22T03:35:51;22.33;;;13.83;;
20245;SDS011;10281;54.406;18.556;2024-03-22T03:38:17;24.40;;;14.80;;
20245;SDS011;10281;54.406;18.556;2024-03-22T03:40:44;26.17;;;14.47;;
20245;SDS011;10281;54.406;18.556;2024-03-22T03:43:10;25.43;;;15.00;;
20245;SDS011;10281;54.406;18.556;2024-03-22T03:45:37;22.67;;;14.13;;
20245;SDS011;10281;54.406;18.556;2024-03-22T03:48:04;25.13;;;14.40;;
20245;SDS011;10281;54.406;18.556;2024-03-22T03:50:31;23.13;;;14.47;;
20245;SDS011;10281;54.406;18.556;2024-03-22T03:52:58;23.50;;;14.37;;
20245;SDS011;10281;54.406;18.556;2024-03-22T03:55:24;24.03;;;14.73;;
20245;SDS011;10281;54.406;18.556;2024-03-22T03:57:51;25.07;;;15.10;;
20245;SDS011;10281;54.406;18.556;2024-03-22T04:00:19;23.90;;;13.73;;
20245;SDS011;10281;54.406;18.556;2024-03-22T04:02:48;22.73;;;14.73;;
20245;SDS011;10281;54.406;18.556;2024-03-22T04:05:16;23.27;;;14.40;;
20245;SDS011;10281;54.406;18.556;2024-03-22T04:07:46;24.07;;;15.83;;
20245;SDS011;10281;54.406;18.556;2024-03-22T04:10:14;23.37;;;15.53;;
20245;SDS011;10281;54.406;18.556;2024-03-22T04:12:40;23.70;;;15.00;;
20245;SDS011;10281;54.406;18.556;2024-03-22T04:15:07;23.30;;;15.53;;
20245;SDS011;10281;54.406;18.556;2024-03-22T04:17:34;25.83;;;15.17;;
20245;SDS011;10281;54.406;18.556;2024-03-22T04:20:01;25.47;;;14.90;;
20245;SDS011;10281;54.406;18.556;2024-03-22T04:22:29;28.13;;;14.97;;
20245;SDS011;10281;54.406;18.556;2024-03-22T04:24:56;26.30;;;14.93;;
20245;SDS011;10281;54.406;18.556;2024-03-22T04:27:22;24.13;;;14.80;;
20245;SDS011;10281;54.406;18.556;2024-03-22T04:29:49;23.50;;;14.47;;
20245;SDS011;10281;54.406;18.556;2024-03-22T04:32:16;25.80;;;15.17;;
20245;SDS011;10281;54.406;18.556;2024-03-22T04:34:42;22.13;;;14.73;;
20245;SDS011;10281;54.406;18.556;2024-03-22T04:37:09;26.37;;;15.27;;
20245;SDS011;10281;54.406;18.556;2024-03-22T04:39:37;28.10;;;15.63;;
20245;SDS011;10281;54.406;18.556;2024-03-22T04:42:05;23.23;;;14.47;;
20245;SDS011;10281;54.406;18.556;2024-03-22T04:44:32;23.20;;;15.20;;
20245;SDS011;10281;54.406;18.556;2024-03-22T04:46:59;22.80;;;15.33;;
20245;SDS011;10281;54.406;18.556;2024-03-22T04:49:26;26.90;;;14.57;;
20245;SDS011;10281;54.406;18.556;2024-03-22T04:51:52;26.50;;;15.87;;
20245;SDS011;10281;54.406;18.556;2024-03-22T04:54:19;24.37;;;15.40;;
20245;SDS011;10281;54.406;18.556;2024-03-22T04:56:45;24.23;;;15.30;;
20245;SDS011;10281;54.406;18.556;2024-03-22T04:59:12;23.20;;;14.70;;
20245;SDS011;10281;54.406;18.556;2024-03-22T05:01:39;24.03;;;15.60;;
20245;SDS011;10281;54.406;18.556;2024-03-22T05:04:05;25.53;;;15.00;;
20245;SDS011;10281;54.406;18.556;2024-03-22T05:06:32;23.20;;;15.23;;
20245;SDS011;10281;54.406;18.556;2024-03-22T05:08:58;24.97;;;15.83;;
20245;SDS011;10281;54.406;18.556;2024-03-22T05:11:25;26.37;;;15.23;;
20245;SDS011;10281;54.406;18.556;2024-03-22T05:13:52;23.57;;;14.60;;
20245;SDS011;10281;54.406;18.556;2024-03-22T05:16:18;22.40;;;15.10;;
20245;SDS011;10281;54.406;18.556;2024-03-22T05:18:45;23.67;;;15.83;;
20245;SDS011;10281;54.406;18.556;2024-03-22T05:21:11;24.27;;;15.93;;
20245;SDS011;10281;54.406;18.556;2024-03-22T05:23:38;23.97;;;15.77;;
20245;SDS011;10281;54.406;18.556;2024-03-22T05:26:05;22.40;;;15.47;;
20245;SDS011;10281;54.406;18.556;2024-03-22T05:28:31;24.83;;;14.83;;
20245;SDS011;10281;54.406;18.556;2024-03-22T05:30:59;22.87;;;16.13;;
20245;SDS011;10281;54.406;18.556;2024-03-22T05:33:25;27.50;;;16.37;;
20245;SDS011;10281;54.406;18.556;2024-03-22T05:35:52;26.97;;;16.13;;
20245;SDS011;10281;54.406;18.556;2024-03-22T05:38:19;26.80;;;16.70;;
20245;SDS011;10281;54.406;18.556;2024-03-22T05:40:46;25.87;;;16.13;;
20245;SDS011;10281;54.406;18.556;2024-03-22T05:43:13;24.57;;;16.23;;
20245;SDS011;10281;54.406;18.556;2024-03-22T05:45:40;25.33;;;15.70;;
20245;SDS011;10281;54.406;18.556;2024-03-22T05:48:07;25.17;;;15.83;;
20245;SDS011;10281;54.406;18.556;2024-03-22T05:50:33;25.37;;;15.43;;
20245;SDS011;10281;54.406;18.556;2024-03-22T05:53:00;24.93;;;16.70;;
20245;SDS011;10281;54.406;18.556;2024-03-22T05:55:27;26.80;;;17.27;;
20245;SDS011;10281;54.406;18.556;2024-03-22T05:57:55;25.87;;;16.17;;
20245;SDS011;10281;54.406;18.556;2024-03-22T06:00:22;25.93;;;16.70;;
20245;SDS011;10281;54.406;18.556;2024-03-22T06:02:48;22.03;;;15.30;;
20245;SDS011;10281;54.406;18.556;2024-03-22T06:05:15;24.83;;;15.43;;
20245;SDS011;10281;54.406;18.556;2024-03-22T06:07:43;24.40;;;14.83;;
20245;SDS011;10281;54.406;18.556;2024-03-22T06:10:11;24.63;;;15.63;;
20245;SDS011;10281;54.406;18.556;2024-03-22T06:12:38;21.63;;;14.10;;
20245;SDS011;10281;54.406;18.556;2024-03-22T06:15:06;22.27;;;14.43;;
20245;SDS011;10281;54.406;18.556;2024-03-22T06:17:32;27.13;;;15.60;;
20245;SDS011;10281;54.406;18.556;2024-03-22T06:19:59;22.70;;;14.97;;
20245;SDS011;10281;54.406;18.556;2024-03-22T06:22:26;24.80;;;15.33;;
20245;SDS011;10281;54.406;18.556;2024-03-22T06:24:53;21.07;;;13.90;;
20245;SDS011;10281;54.406;18.556;2024-03-22T06:27:19;20.33;;;13.60;;
20245;SDS011;10281;54.406;18.556;2024-03-22T06:29:46;20.50;;;13.50;;
20245;SDS011;10281;54.406;18.556;2024-03-22T06:32:13;21.63;;;14.00;;
20245;SDS011;10281;54.406;18.556;2024-03-22T06:34:39;22.80;;;13.20;;
20245;SDS011;10281;54.406;18.556;2024-03-22T06:37:06;22.40;;;13.97;;
20245;SDS011;10281;54.406;18.556;2024-03-22T06:39:33;21.37;;;13.23;;
20245;SDS011;10281;54.406;18.556;2024-03-22T06:41:59;18.87;;;13.10;;
20245;SDS011;10281;54.406;18.556;2024-03-22T06:44:26;17.70;;;12.17;;
20245;SDS011;10281;54.406;18.556;2024-03-22T06:46:52;20.23;;;13.00;;
20245;SDS011;10281;54.406;18.556;2024-03-22T06:49:19;19.30;;;12.90;;
20245;SDS011;10281;54.406;18.556;2024-03-22T06:51:46;20.97;;;12.97;;
20245;SDS011;10281;54.406;18.556;2024-03-22T06:54:12;19.97;;;12.97;;
20245;SDS011;10281;54.406;18.556;2024-03-22T06:56:39;21.07;;;14.23;;
20245;SDS011;10281;54.406;18.556;2024-03-22T06:59:06;20.27;;;12.30;;
20245;SDS011;10281;54.406;18.556;2024-03-22T07:01:33;20.23;;;12.93;;
20245;SDS011;10281;54.406;18.556;2024-03-22T07:03:59;21.17;;;13.33;;
20245;SDS011;10281;54.406;18.556;2024-03-22T07:06:26;19.03;;;12.57;;
20245;SDS011;10281;54.406;18.556;2024-03-22T07:08:53;16.47;;;11.67;;
20245;SDS011;10281;54.406;18.556;2024-03-22T07:11:19;20.33;;;12.00;;
20245;SDS011;10281;54.406;18.556;2024-03-22T07:13:46;17.50;;;11.40;;
20245;SDS011;10281;54.406;18.556;2024-03-22T07:16:12;18.00;;;12.13;;
20245;SDS011;10281;54.406;18.556;2024-03-22T07:18:39;18.23;;;11.70;;
20245;SDS011;10281;54.406;18.556;2024-03-22T07:21:06;18.03;;;11.43;;
20245;SDS011;10281;54.406;18.556;2024-03-22T07:23:33;15.77;;;11.50;;
20245;SDS011;10281;54.406;18.556;2024-03-22T07:25:59;15.50;;;10.20;;
20245;SDS011;10281;54.406;18.556;2024-03-22T07:28:26;15.87;;;10.53;;
20245;SDS011;10281;54.406;18.556;2024-03-22T07:30:52;14.87;;;10.80;;
20245;SDS011;10281;54.406;18.556;2024-03-22T07:33:20;15.90;;;10.67;;
20245;SDS011;10281;54.406;18.556;2024-03-22T07:35:47;15.70;;;10.40;;
20245;SDS011;10281;54.406;18.556;2024-03-22T07:38:13;16.93;;;11.33;;
20245;SDS011;10281;54.406;18.556;2024-03-22T07:40:40;27.83;;;19.87;;
20245;SDS011;10281;54.406;18.556;2024-03-22T07:43:07;20.30;;;14.00;;
20245;SDS011;10281;54.406;18.556;2024-03-22T07:45:34;15.60;;;11.00;;
20245;SDS011;10281;54.406;18.556;2024-03-22T07:48:01;14.77;;;10.10;;
20245;SDS011;10281;54.406;18.556;2024-03-22T07:50:27;14.37;;;10.13;;
20245;SDS011;10281;54.406;18.556;2024-03-22T07:52:54;15.67;;;11.50;;
20245;SDS011;10281;54.406;18.556;2024-03-22T07:55:22;13.53;;;10.27;;
20245;SDS011;10281;54.406;18.556;2024-03-22T07:57:49;12.37;;;9.77;;
20245;SDS011;10281;54.406;18.556;2024-03-22T08:00:16;13.90;;;10.20;;
20245;SDS011;10281;54.406;18.556;2024-03-22T08:02:43;12.97;;;10.03;;
20245;SDS011;10281;54.406;18.556;2024-03-22T08:05:09;12.87;;;9.90;;
20245;SDS011;10281;54.406;18.556;2024-03-22T08:07:36;12.43;;;9.57;;
20245;SDS011;10281;54.406;18.556;2024-03-22T08:10:03;12.80;;;9.00;;
20245;SDS011;10281;54.406;18.556;2024-03-22T08:12:30;12.17;;;8.53;;
20245;SDS011;10281;54.406;18.556;2024-03-22T08:14:56;13.70;;;9.93;;
20245;SDS011;10281;54.406;18.556;2024-03-22T08:17:23;13.40;;;9.70;;
20245;SDS011;10281;54.406;18.556;2024-03-22T08:19:50;20.97;;;16.60;;
20245;SDS011;10281;54.406;18.556;2024-03-22T08:22:16;10.57;;;9.23;;
20245;SDS011;10281;54.406;18.556;2024-03-22T08:24:43;13.60;;;9.83;;
20245;SDS011;10281;54.406;18.556;2024-03-22T08:27:09;14.67;;;10.80;;
20245;SDS011;10281;54.406;18.556;2024-03-22T08:29:37;13.47;;;8.97;;
20245;SDS011;10281;54.406;18.556;2024-03-22T08:32:04;11.10;;;8.47;;
20245;SDS011;10281;54.406;18.556;2024-03-22T08:34:31;123.70;;;19.90;;
20245;SDS011;10281;54.406;18.556;2024-03-22T08:36:58;16.00;;;8.97;;
20245;SDS011;10281;54.406;18.556;2024-03-22T08:39:25;11.80;;;8.33;;
20245;SDS011;10281;54.406;18.556;2024-03-22T08:41:51;13.93;;;8.43;;
20245;SDS011;10281;54.406;18.556;2024-03-22T08:44:18;11.07;;;8.40;;
20245;SDS011;10281;54.406;18.556;2024-03-22T08:46:45;12.37;;;8.70;;
20245;SDS011;10281;54.406;18.556;2024-03-22T08:49:11;12.17;;;8.53;;
20245;SDS011;10281;54.406;18.556;2024-03-22T08:51:38;12.07;;;9.13;;
20245;SDS011;10281;54.406;18.556;2024-03-22T08:54:05;11.27;;;9.10;;
20245;SDS011;10281;54.406;18.556;2024-03-22T08:56:31;11.63;;;9.40;;
20245;SDS011;10281;54.406;18.556;2024-03-22T08:58:58;11.97;;;9.53;;
20245;SDS011;10281;54.406;18.556;2024-03-22T09:01:26;11.87;;;9.20;;
20245;SDS011;10281;54.406;18.556;2024-03-22T09:03:53;18.93;;;10.37;;
20245;SDS011;10281;54.406;18.556;2024-03-22T09:06:19;14.93;;;10.00;;
20245;SDS011;10281;54.406;18.556;2024-03-22T09:08:47;13.90;;;9.13;;
20245;SDS011;10281;54.406;18.556;2024-03-22T09:11:13;12.83;;;8.93;;
20245;SDS011;10281;54.406;18.556;2024-03-22T09:13:40;12.80;;;9.97;;
20245;SDS011;10281;54.406;18.556;2024-03-22T09:16:06;13.73;;;10.13;;
20245;SDS011;10281;54.406;18.556;2024-03-22T09:18:33;14.23;;;10.47;;
20245;SDS011;10281;54.406;18.556;2024-03-22T09:21:00;13.03;;;9.77;;
20245;SDS011;10281;54.406;18.556;2024-03-22T09:23:26;12.43;;;9.80;;
20245;SDS011;10281;54.406;18.556;2024-03-22T09:25:53;13.10;;;10.47;;
20245;SDS011;10281;54.406;18.556;2024-03-22T09:28:20;13.77;;;10.50;;
20245;SDS011;10281;54.406;18.556;2024-03-22T09:30:46;13.50;;;10.70;;
20245;SDS011;10281;54.406;18.556;2024-03-22T09:33:13;15.10;;;11.37;;
20245;SDS011;10281;54.406;18.556;2024-03-22T09:35:40;12.60;;;10.57;;
20245;SDS011;10281;54.406;18.556;2024-03-22T09:38:07;14.63;;;11.33;;
20245;SDS011;10281;54.406;18.556;2024-03-22T09:40:33;15.80;;;12.07;;
20245;SDS011;10281;54.406;18.556;2024-03-22T09:43:03;14.60;;;10.80;;
20245;SDS011;10281;54.406;18.556;2024-03-22T09:45:32;15.13;;;11.73;;
20245;SDS011;10281;54.406;18.556;2024-03-22T09:47:59;14.97;;;11.53;;
20245;SDS011;10281;54.406;18.556;2024-03-22T09:50:27;14.40;;;10.93;;
20245;SDS011;10281;54.406;18.556;2024-03-22T09:52:55;63.77;;;17.03;;
20245;SDS011;10281;54.406;18.556;2024-03-22T09:55:24;15.43;;;12.03;;
20245;SDS011;10281;54.406;18.556;2024-03-22T09:57:51;17.43;;;11.87;;
20245;SDS011;10281;54.406;18.556;2024-03-22T10:00:19;21.97;;;12.17;;
20245;SDS011;10281;54.406;18.556;2024-03-22T10:02:48;16.67;;;12.57;;
20245;SDS011;10281;54.406;18.556;2024-03-22T10:05:15;15.70;;;12.47;;
20245;SDS011;10281;54.406;18.556;2024-03-22T10:07:44;16.53;;;12.97;;
20245;SDS011;10281;54.406;18.556;2024-03-22T10:10:11;18.23;;;13.20;;
20245;SDS011;10281;54.406;18.556;2024-03-22T10:12:40;16.40;;;13.23;;
20245;SDS011;10281;54.406;18.556;2024-03-22T10:15:07;20.37;;;14.50;;
20245;SDS011;10281;54.406;18.556;2024-03-22T10:17:34;17.80;;;13.50;;
20245;SDS011;10281;54.406;18.556;2024-03-22T10:20:02;19.83;;;14.13;;
20245;SDS011;10281;54.406;18.556;2024-03-22T10:22:28;19.10;;;14.30;;
20245;SDS011;10281;54.406;18.556;2024-03-22T10:24:56;19.37;;;14.53;;
20245;SDS011;10281;54.406;18.556;2024-03-22T10:27:24;19.17;;;14.43;;
20245;SDS011;10281;54.406;18.556;2024-03-22T10:29:54;19.33;;;14.60;;
20245;SDS011;10281;54.406;18.556;2024-03-22T10:32:22;19.50;;;14.17;;
20245;SDS011;10281;54.406;18.556;2024-03-22T10:34:50;19.53;;;14.43;;
20245;SDS011;10281;54.406;18.556;2024-03-22T10:37:17;19.60;;;14.97;;
20245;SDS011;10281;54.406;18.556;2024-03-22T10:39:44;20.90;;;15.13;;
20245;SDS011;10281;54.406;18.556;2024-03-22T10:42:13;18.70;;;13.83;;
20245;SDS011;10281;54.406;18.556;2024-03-22T10:44:41;19.50;;;14.50;;
20245;SDS011;10281;54.406;18.556;2024-03-22T10:47:09;17.27;;;13.80;;
20245;SDS011;10281;54.406;18.556;2024-03-22T10:49:39;17.57;;;13.87;;
20245;SDS011;10281;54.406;18.556;2024-03-22T10:52:07;20.27;;;14.80;;
20245;SDS011;10281;54.406;18.556;2024-03-22T10:54:40;19.47;;;14.27;;
20245;SDS011;10281;54.406;18.556;2024-03-22T10:57:11;21.50;;;15.27;;
20245;SDS011;10281;54.406;18.556;2024-03-22T10:59:38;23.13;;;15.23;;
20245;SDS011;10281;54.406;18.556;2024-03-22T11:02:10;20.87;;;15.63;;
20245;SDS011;10281;54.406;18.556;2024-03-22T11:04:37;19.73;;;14.37;;
20245;SDS011;10281;54.406;18.556;2024-03-22T11:07:04;20.90;;;15.00;;
20245;SDS011;10281;54.406;18.556;2024-03-22T11:09:31;19.00;;;13.97;;
20245;SDS011;10281;54.406;18.556;2024-03-22T11:11:57;18.77;;;13.77;;
20245;SDS011;10281;54.406;18.556;2024-03-22T11:14:26;18.47;;;14.07;;
20245;SDS011;10281;54.406;18.556;2024-03-22T11:16:53;19.50;;;14.23;;
20245;SDS011;10281;54.406;18.556;2024-03-22T11:19:19;20.93;;;15.07;;
20245;SDS011;10281;54.406;18.556;2024-03-22T11:21:46;20.20;;;14.37;;
20245;SDS011;10281;54.406;18.556;2024-03-22T11:24:12;20.53;;;14.13;;
20245;SDS011;10281;54.406;18.556;2024-03-22T11:26:39;20.20;;;14.00;;
20245;SDS011;10281;54.406;18.556;2024-03-22T11:29:05;19.67;;;13.33;;
20245;SDS011;10281;54.406;18.556;2024-03-22T11:31:34;20.17;;;14.37;;
20245;SDS011;10281;54.406;18.556;2024-03-22T11:34:00;19.10;;;14.83;;
20245;SDS011;10281;54.406;18.556;2024-03-22T11:36:28;18.07;;;13.60;;
20245;SDS011;10281;54.406;18.556;2024-03-22T11:38:56;18.80;;;14.23;;
20245;SDS011;10281;54.406;18.556;2024-03-22T11:41:25;18.07;;;14.07;;
20245;SDS011;10281;54.406;18.556;2024-03-22T11:43:54;18.23;;;13.80;;
20245;SDS011;10281;54.406;18.556;2024-03-22T11:46:23;19.20;;;13.03;;
20245;SDS011;10281;54.406;18.556;2024-03-22T11:48:51;19.93;;;15.07;;
20245;SDS011;10281;54.406;18.556;2024-03-22T11:51:18;18.70;;;13.77;;
20245;SDS011;10281;54.406;18.556;2024-03-22T11:53:48;18.70;;;13.80;;
20245;SDS011;10281;54.406;18.556;2024-03-22T11:56:18;20.83;;;14.23;;
20245;SDS011;10281;54.406;18.556;2024-03-22T11:58:46;20.17;;;13.03;;
20245;SDS011;10281;54.406;18.556;2024-03-22T12:01:15;19.03;;;13.10;;
20245;SDS011;10281;54.406;18.556;2024-03-22T12:03:43;17.73;;;13.37;;
20245;SDS011;10281;54.406;18.556;2024-03-22T12:06:10;16.60;;;12.70;;
20245;SDS011;10281;54.406;18.556;2024-03-22T12:08:37;18.67;;;13.40;;
20245;SDS011;10281;54.406;18.556;2024-03-22T12:11:07;18.90;;;12.63;;
20245;SDS011;10281;54.406;18.556;2024-03-22T12:13:34;16.93;;;12.80;;
20245;SDS011;10281;54.406;18.556;2024-03-22T12:16:01;16.87;;;13.20;;
20245;SDS011;10281;54.406;18.556;2024-03-22T12:18:29;17.47;;;13.67;;
20245;SDS011;10281;54.406;18.556;2024-03-22T12:20:56;15.47;;;12.37;;
20245;SDS011;10281;54.406;18.556;2024-03-22T12:23:22;17.07;;;12.50;;
20245;SDS011;10281;54.406;18.556;2024-03-22T12:25:50;15.80;;;11.97;;
20245;SDS011;10281;54.406;18.556;2024-03-22T12:28:18;15.73;;;11.43;;
20245;SDS011;10281;54.406;18.556;2024-03-22T12:30:47;14.73;;;11.07;;
20245;SDS011;10281;54.406;18.556;2024-03-22T12:33:16;14.30;;;11.33;;
20245;SDS011;10281;54.406;18.556;2024-03-22T12:35:42;14.37;;;11.13;;
20245;SDS011;10281;54.406;18.556;2024-03-22T12:38:09;15.17;;;11.17;;
20245;SDS011;10281;54.406;18.556;2024-03-22T12:40:38;14.70;;;11.13;;
20245;SDS011;10281;54.406;18.556;2024-03-22T12:43:05;15.33;;;11.70;;
20245;SDS011;10281;54.406;18.556;2024-03-22T12:45:32;51.13;;;14.23;;
20245;SDS011;10281;54.406;18.556;2024-03-22T12:47:59;13.67;;;9.93;;
20245;SDS011;10281;54.406;18.556;2024-03-22T12:50:26;13.13;;;9.83;;
20245;SDS011;10281;54.406;18.556;2024-03-22T12:52:53;11.20;;;9.60;;
20245;SDS011;10281;54.406;18.556;2024-03-22T12:55:19;11.37;;;9.43;;
20245;SDS011;10281;54.406;18.556;2024-03-22T12:57:47;11.70;;;9.17;;
20245;SDS011;10281;54.406;18.556;2024-03-22T13:00:14;12.00;;;9.20;;
20245;SDS011;10281;54.406;18.556;2024-03-22T13:02:42;11.63;;;9.13;;
20245;SDS011;10281;54.406;18.556;2024-03-22T13:05:09;11.13;;;8.63;;
20245;SDS011;10281;54.406;18.556;2024-03-22T13:07:36;11.40;;;9.07;;
20245;SDS011;10281;54.406;18.556;2024-03-22T13:10:03;12.03;;;9.80;;
20245;SDS011;10281;54.406;18.556;2024-03-22T13:12:31;12.40;;;9.40;;
20245;SDS011;10281;54.406;18.556;2024-03-22T13:14:59;11.70;;;9.60;;
20245;SDS011;10281;54.406;18.556;2024-03-22T13:17:27;15.07;;;9.40;;
20245;SDS011;10281;54.406;18.556;2024-03-22T13:19:53;12.50;;;9.73;;
20245;SDS011;10281;54.406;18.556;2024-03-22T13:22:20;12.10;;;9.23;;
20245;SDS011;10281;54.406;18.556;2024-03-22T13:24:47;13.40;;;10.27;;
20245;SDS011;10281;54.406;18.556;2024-03-22T13:27:16;12.90;;;9.37;;
20245;SDS011;10281;54.406;18.556;2024-03-22T13:29:43;13.90;;;10.17;;
20245;SDS011;10281;54.406;18.556;2024-03-22T13:32:10;12.80;;;9.87;;
20245;SDS011;10281;54.406;18.556;2024-03-22T13:34:37;10.87;;;9.43;;
20245;SDS011;10281;54.406;18.556;2024-03-22T13:37:04;14.23;;;10.67;;
20245;SDS011;10281;54.406;18.556;2024-03-22T13:39:32;14.53;;;10.60;;
20245;SDS011;10281;54.406;18.556;2024-03-22T13:41:58;12.97;;;10.13;;
20245;SDS011;10281;54.406;18.556;2024-03-22T13:44:25;13.30;;;10.07;;
20245;SDS011;10281;54.406;18.556;2024-03-22T13:46:52;15.37;;;10.60;;
20245;SDS011;10281;54.406;18.556;2024-03-22T13:49:19;13.50;;;10.27;;
20245;SDS011;10281;54.406;18.556;2024-03-22T13:51:47;14.10;;;9.87;;
20245;SDS011;10281;54.406;18.556;2024-03-22T13:54:14;13.27;;;10.83;;
20245;SDS011;10281;54.406;18.556;2024-03-22T13:56:41;15.10;;;10.37;;
20245;SDS011;10281;54.406;18.556;2024-03-22T13:59:08;14.03;;;10.60;;
20245;SDS011;10281;54.406;18.556;2024-03-22T14:01:35;13.50;;;10.53;;
20245;SDS011;10281;54.406;18.556;2024-03-22T14:04:05;15.23;;;10.70;;
20245;SDS011;10281;54.406;18.556;2024-03-22T14:06:32;12.53;;;10.83;;
20245;SDS011;10281;54.406;18.556;2024-03-22T14:08:59;16.30;;;11.13;;